Time;durP1;ratioP1;P1;durP2;ratioP2;P2;SDS_P1;SDS_P2;PMS_P1;PMS_P2;Temp;Humidity;BMP_temperature;BMP_pressure;BME280_temperature;BME280_humidity;BME280_pressure;Samples;Min_cycle;Max_cycle;Signal;HPM_P1;HPM_P2
2023/12/07 00:00:09;;;;;;;49.28;31.77;;;;;;;0.13;100.00;160608.69;5049450;28;20649;-62
2023/12/07 00:02:35;;;;;;;50.13;35.35;;;;;;;0.15;100.00;160612.72;5065337;28;20453;-61
2023/12/07 00:05:00;;;;;;;53.03;34.53;;;;;;;0.10;100.00;160599.31;5049439;28;20047;-61
2023/12/07 00:07:25;;;;;;;52.00;36.08;;;;;;;0.01;100.00;160575.19;5049978;28;20017;-61
2023/12/07 00:09:51;;;;;;;50.95;35.08;;;;;;;-0.06;100.00;160559.13;5051599;28;20507;-61
2023/12/07 00:12:17;;;;;;;59.10;36.65;;;;;;;-0.13;100.00;160539.00;5054578;28;20396;-61
2023/12/07 00:14:42;;;;;;;54.10;34.25;;;;;;;-0.21;100.00;160520.22;5053200;28;20036;-60
2023/12/07 00:17:07;;;;;;;54.17;34.53;;;;;;;-0.21;100.00;160518.91;5054080;28;20021;-61
2023/12/07 00:19:33;;;;;;;53.80;34.40;;;;;;;-0.25;100.00;160508.16;5065492;28;20040;-59
2023/12/07 00:21:58;;;;;;;66.95;36.03;;;;;;;-0.13;100.00;160539.00;5073872;28;20025;-61
2023/12/07 00:24:24;;;;;;;373.35;66.53;;;;;;;-0.12;100.00;160543.03;5052468;28;20041;-61
2023/12/07 00:26:49;;;;;;;149.65;39.55;;;;;;;-0.11;100.00;160545.69;5054336;28;20029;-61
2023/12/07 00:29:15;;;;;;;99.60;38.08;;;;;;;-0.11;100.00;160544.38;5052595;28;20024;-61
2023/12/07 00:31:40;;;;;;;49.67;33.40;;;;;;;-0.12;100.00;160543.03;5053615;28;20033;-61
2023/12/07 00:34:06;;;;;;;52.67;33.72;;;;;;;-0.14;100.00;160537.66;5052951;28;20029;-60
2023/12/07 00:36:31;;;;;;;53.22;32.75;;;;;;;-0.14;100.00;160537.66;5053751;28;20045;-61
2023/12/07 00:38:56;;;;;;;47.33;30.95;;;;;;;-0.18;100.00;160526.91;5053891;28;20021;-61
2023/12/07 00:41:22;;;;;;;55.25;34.03;;;;;;;-0.23;100.00;160514.91;5052264;28;20622;-61
2023/12/07 00:43:47;;;;;;;57.83;34.22;;;;;;;-0.23;100.00;160514.91;5053941;28;20028;-61
2023/12/07 00:46:13;;;;;;;56.88;34.88;;;;;;;-0.22;100.00;160516.22;5051843;28;20033;-61
2023/12/07 00:48:38;;;;;;;48.05;34.42;;;;;;;-0.23;100.00;160513.53;5053963;28;20438;-61
2023/12/07 00:51:06;;;;;;;52.65;34.08;;;;;;;-0.25;100.00;160508.16;5070664;28;20517;-61
2023/12/07 00:53:31;;;;;;;56.72;37.60;;;;;;;-0.28;100.00;160501.47;5073527;28;20024;-61
2023/12/07 00:55:57;;;;;;;47.20;34.22;;;;;;;-0.25;100.00;160508.16;5072217;28;20507;-60
2023/12/07 00:58:22;;;;;;;62.05;37.10;;;;;;;-0.36;100.00;160481.41;5064874;28;20025;-61
2023/12/07 01:00:48;;;;;;;76.18;41.45;;;;;;;-0.24;100.00;160512.22;5051638;28;20048;-61
2023/12/07 01:03:14;;;;;;;59.00;37.53;;;;;;;-0.27;100.00;160502.84;5053479;28;20070;-61
2023/12/07 01:05:39;;;;;;;59.40;36.80;;;;;;;-0.19;100.00;160524.28;5052332;28;20045;-61
2023/12/07 01:08:04;;;;;;;60.45;38.30;;;;;;;-0.27;100.00;160502.84;5061601;28;20031;-61
2023/12/07 01:10:30;;;;;;;62.55;37.90;;;;;;;-0.18;100.00;160526.91;5071918;28;20131;-61
2023/12/07 01:12:55;;;;;;;55.55;35.90;;;;;;;-0.16;100.00;160532.28;5073547;28;20074;-61
2023/12/07 01:15:20;;;;;;;61.65;37.80;;;;;;;-0.23;100.00;160513.53;5071348;28;20037;-62
2023/12/07 01:17:46;;;;;;;65.38;36.72;;;;;;;-0.29;100.00;160497.47;5073236;28;20023;-60
2023/12/07 01:20:12;;;;;;;62.22;37.10;;;;;;;-0.40;100.00;160469.34;5070945;28;20036;-61
2023/12/07 01:22:41;;;;;;;67.85;39.42;;;;;;;-0.39;100.00;160473.34;5072598;28;20025;-61
2023/12/07 01:25:07;;;;;;;82.05;44.13;;;;;;;-0.46;100.00;160453.25;5063856;28;20045;-61
2023/12/07 01:27:33;;;;;;;69.43;39.97;;;;;;;-0.45;100.00;160457.28;5072601;28;20017;-61
2023/12/07 01:29:58;;;;;;;66.05;39.15;;;;;;;-0.47;100.00;160451.91;5064640;28;20068;-61
2023/12/07 01:32:23;;;;;;;68.32;38.10;;;;;;;-0.54;100.00;160434.50;5052907;28;20032;-61
2023/12/07 01:34:49;;;;;;;60.50;37.00;;;;;;;-0.58;100.00;160423.78;5051851;28;20045;-61
2023/12/07 01:37:14;;;;;;;83.15;39.70;;;;;;;-0.60;100.00;160417.09;5052380;28;20048;-61
2023/12/07 01:39:42;;;;;;;72.90;38.55;;;;;;;-0.65;100.00;160406.38;5051753;28;20037;-61
2023/12/07 01:42:08;;;;;;;135.55;38.80;;;;;;;-0.67;100.00;160401.03;5057640;28;20444;-61
2023/12/07 01:44:34;;;;;;;77.40;41.22;;;;;;;-0.67;100.00;160401.03;5057025;28;20488;-61
2023/12/07 01:46:59;;;;;;;96.43;37.80;;;;;;;-0.70;100.00;160392.97;5052949;28;20036;-61
2023/12/07 01:49:25;;;;;;;562.00;92.88;;;;;;;-0.65;100.00;160405.03;5051850;28;20048;-61
2023/12/07 01:51:51;;;;;;;531.47;91.18;;;;;;;-0.66;100.00;160403.69;5052421;28;20094;-61
2023/12/07 01:54:17;;;;;;;72.85;35.35;;;;;;;-0.76;100.00;160376.91;5051151;28;20041;-61
2023/12/07 01:56:42;;;;;;;69.32;36.20;;;;;;;-0.81;100.00;160363.53;5052925;28;20024;-60
2023/12/07 01:59:08;;;;;;;75.60;45.20;;;;;;;-0.88;100.00;160346.09;5050486;28;20037;-60
2023/12/07 02:01:33;;;;;;;64.38;40.55;;;;;;;-0.91;100.00;160338.09;5052295;28;20029;-60
2023/12/07 02:03:59;;;;;;;249.32;63.78;;;;;;;-0.91;100.00;160336.72;5051229;28;20021;-59
2023/12/07 02:06:26;;;;;;;422.80;81.88;;;;;;;-0.94;100.00;160330.03;5051889;28;20036;-60
2023/12/07 02:08:51;;;;;;;74.47;38.08;;;;;;;-1.05;100.00;160301.91;5052716;28;20057;-61
2023/12/07 02:11:18;;;;;;;68.03;39.10;;;;;;;-1.17;100.00;160269.78;5050721;28;20075;-62
2023/12/07 02:13:43;;;;;;;82.18;39.30;;;;;;;-1.31;100.00;160233.63;5053495;28;20021;-61
2023/12/07 02:16:24;;;;;;;156.93;42.13;;;;;;;-1.33;100.00;160229.63;5070768;28;20407;-61
2023/12/07 02:19:04;;;;;;;99.65;37.83;;;;;;;-1.37;100.00;160218.88;5056931;28;20413;-61
2023/12/07 02:21:47;;;;;;;79.82;40.38;;;;;;;-1.55;100.00;160170.72;5050540;28;20045;-61
2023/12/07 02:24:21;;;;;;;91.32;41.97;;;;;;;-1.48;100.00;160189.47;5050515;28;20480;-61
2023/12/07 02:26:47;;;;;;;72.55;38.05;;;;;;;-1.55;100.00;160170.72;5052421;28;20556;-61
2023/12/07 02:29:12;;;;;;;61.63;38.30;;;;;;;-1.67;100.00;160139.94;5049837;28;20109;-60
2023/12/07 02:31:38;;;;;;;71.50;37.92;;;;;;;-1.76;100.00;160118.50;5051600;28;20492;-61
2023/12/07 02:34:03;;;;;;;88.90;40.08;;;;;;;-1.75;100.00;160119.88;5032505;28;20029;-60
2023/12/07 02:36:32;;;;;;;314.45;60.97;;;;;;;-1.84;100.00;160095.78;5051102;28;20041;-61
2023/12/07 02:39:03;;;;;;;276.88;60.97;;;;;;;-1.85;100.00;160093.09;5050536;28;20374;-60
2023/12/07 02:41:31;;;;;;;228.10;51.97;;;;;;;-1.86;100.00;160090.41;5051696;28;20049;-61
2023/12/07 02:43:57;;;;;;;241.18;55.50;;;;;;;-1.87;100.00;160089.09;5050276;28;20021;-61
2023/12/07 02:46:24;;;;;;;72.95;37.38;;;;;;;-1.92;100.00;160077.03;5051591;28;20048;-62
2023/12/07 02:48:49;;;;;;;105.82;41.22;;;;;;;-1.94;100.00;160071.66;5048123;28;20111;-62
2023/12/07 02:51:15;;;;;;;82.70;38.00;;;;;;;-1.94;100.00;160071.66;5049771;28;20037;-62
2023/12/07 02:53:40;;;;;;;282.30;52.47;;;;;;;-1.98;100.00;160059.63;5051611;28;20029;-62
2023/12/07 02:56:06;;;;;;;181.98;46.72;;;;;;;-2.17;100.00;160010.13;5050084;28;20131;-62
2023/12/07 02:58:31;;;;;;;313.90;57.97;;;;;;;-2.00;100.00;160055.63;5050594;28;20037;-61
2023/12/07 03:00:56;;;;;;;543.20;100.18;;;;;;;-1.92;100.00;160075.69;5051199;28;20048;-62
2023/12/07 03:03:22;;;;;;;236.68;55.90;;;;;;;-1.96;100.00;160066.31;5051418;28;20025;-61
2023/12/07 03:05:47;;;;;;;371.70;69.57;;;;;;;-1.92;100.00;160077.03;5049670;28;20099;-62
2023/12/07 03:08:13;;;;;;;606.00;99.70;;;;;;;-1.83;100.00;160098.47;5051533;28;20488;-62
2023/12/07 03:10:38;;;;;;;494.88;87.43;;;;;;;-1.81;100.00;160103.78;5069737;28;20101;-62
2023/12/07 03:13:03;;;;;;;154.65;48.38;;;;;;;-1.83;100.00;160098.47;5070866;28;20036;-62
2023/12/07 03:15:29;;;;;;;399.58;72.63;;;;;;;-1.71;100.00;160130.56;5055538;28;20052;-62
2023/12/07 03:17:54;;;;;;;224.43;55.13;;;;;;;-1.66;100.00;160143.94;5050743;28;20029;-62
2023/12/07 03:20:20;;;;;;;156.68;46.58;;;;;;;-1.57;100.00;160166.72;5049393;28;20056;-62
2023/12/07 03:22:45;;;;;;;243.63;57.90;;;;;;;-1.48;100.00;160190.78;5051032;28;20055;-62
2023/12/07 03:25:10;;;;;;;130.35;45.17;;;;;;;-1.41;100.00;160206.81;5068396;28;20051;-62
2023/12/07 03:27:36;;;;;;;89.68;38.40;;;;;;;-1.40;100.00;160209.50;5062245;28;20499;-62
2023/12/07 03:30:02;;;;;;;131.27;43.05;;;;;;;-1.42;100.00;160204.19;5049520;28;20107;-62
2023/12/07 03:32:27;;;;;;;133.00;41.63;;;;;;;-1.44;100.00;160200.16;5050464;28;20506;-62
2023/12/07 03:34:52;;;;;;;190.70;46.25;;;;;;;-1.41;100.00;160208.19;5055971;28;20056;-62
2023/12/07 03:37:18;;;;;;;285.88;50.80;;;;;;;-1.42;100.00;160205.50;5049877;28;20515;-62
2023/12/07 03:39:43;;;;;;;315.95;58.15;;;;;;;-1.43;100.00;160202.81;5049391;28;20045;-62
2023/12/07 03:42:08;;;;;;;223.40;49.38;;;;;;;-1.44;100.00;160200.16;5050968;28;20021;-62
2023/12/07 03:44:34;;;;;;;105.82;38.42;;;;;;;-1.48;100.00;160189.47;5048038;28;20055;-62
2023/12/07 03:46:59;;;;;;;150.95;41.90;;;;;;;-1.47;100.00;160192.13;5050760;28;20031;-62
2023/12/07 03:49:25;;;;;;;199.68;50.63;;;;;;;-1.42;100.00;160205.50;5049116;28;20033;-62
2023/12/07 03:51:50;;;;;;;219.07;49.47;;;;;;;-1.40;100.00;160209.50;5050237;28;20021;-62
2023/12/07 03:54:15;;;;;;;269.63;52.13;;;;;;;-1.36;100.00;160221.56;5048818;28;20079;-63
2023/12/07 03:56:41;;;;;;;273.58;55.05;;;;;;;-1.29;100.00;160239.00;5050511;28;20021;-63
2023/12/07 03:59:06;;;;;;;210.95;44.83;;;;;;;-1.32;100.00;160232.31;5062713;28;20033;-60
2023/12/07 04:01:32;;;;;;;167.02;40.33;;;;;;;-1.35;100.00;160224.25;5070592;28;20027;-61
2023/12/07 04:03:57;;;;;;;131.48;39.63;;;;;;;-1.34;100.00;160226.94;5069292;28;20094;-60
2023/12/07 04:06:24;;;;;;;310.58;54.70;;;;;;;-1.35;100.00;160224.25;5069809;28;20024;-61
2023/12/07 04:08:50;;;;;;;139.73;38.40;;;;;;;-1.35;100.00;160224.25;5052813;28;20036;-61
2023/12/07 04:11:15;;;;;;;197.65;44.00;;;;;;;-1.40;100.00;160210.88;5048687;28;20053;-62
2023/12/07 04:13:41;;;;;;;138.90;38.17;;;;;;;-1.50;100.00;160184.09;5050360;28;20029;-62
2023/12/07 04:16:08;;;;;;;137.15;45.10;;;;;;;-1.47;100.00;160192.13;5049123;28;20037;-62
2023/12/07 04:18:34;;;;;;;176.27;45.50;;;;;;;-1.44;100.00;160201.50;5050030;28;20510;-62
2023/12/07 04:20:59;;;;;;;133.48;38.47;;;;;;;-1.49;100.00;160186.78;5048757;28;20049;-60
2023/12/07 04:23:25;;;;;;;195.07;48.10;;;;;;;-1.47;100.00;160192.13;5050193;28;20017;-60
2023/12/07 04:25:50;;;;;;;82.72;33.42;;;;;;;-1.50;100.00;160184.09;5048991;28;20079;-60
2023/12/07 04:28:15;;;;;;;86.65;34.53;;;;;;;-1.56;100.00;160169.34;5055864;28;20024;-60
2023/12/07 04:30:41;;;;;;;72.45;34.08;;;;;;;-1.56;100.00;160168.03;5068977;28;20045;-60
2023/12/07 04:33:06;;;;;;;77.18;34.92;;;;;;;-1.57;100.00;160165.34;5070247;28;20048;-60
2023/12/07 04:35:31;;;;;;;75.93;35.53;;;;;;;-1.65;100.00;160145.28;5068261;28;20045;-60
2023/12/07 04:37:57;;;;;;;104.13;40.17;;;;;;;-1.58;100.00;160162.66;5060247;28;20580;-60
2023/12/07 04:40:24;;;;;;;67.30;33.28;;;;;;;-1.63;100.00;160151.97;5048561;28;20041;-60
2023/12/07 04:42:50;;;;;;;101.65;41.88;;;;;;;-1.71;100.00;160130.56;5049742;28;20489;-61
2023/12/07 04:45:15;;;;;;;129.23;39.05;;;;;;;-1.75;100.00;160119.88;5065845;28;20044;-61
2023/12/07 04:47:41;;;;;;;92.88;38.67;;;;;;;-1.76;100.00;160117.19;5061625;28;20442;-61
2023/12/07 04:50:07;;;;;;;114.15;41.40;;;;;;;-1.75;100.00;160119.88;5048619;28;20033;-61
2023/12/07 04:52:32;;;;;;;148.70;45.53;;;;;;;-1.64;100.00;160149.28;5059842;28;20029;-61
2023/12/07 04:54:58;;;;;;;114.82;41.97;;;;;;;-1.61;100.00;160155.97;5069677;28;20034;-61
2023/12/07 04:57:24;;;;;;;107.20;42.25;;;;;;;-1.61;100.00;160157.34;5065878;28;20409;-61
2023/12/07 04:59:49;;;;;;;107.68;40.40;;;;;;;-1.62;100.00;160154.66;5052531;28;20052;-61
2023/12/07 05:02:16;;;;;;;206.95;47.78;;;;;;;-1.62;100.00;160153.28;5053512;28;20434;-61
2023/12/07 05:04:42;;;;;;;260.00;56.15;;;;;;;-1.56;100.00;160168.03;5052110;28;20065;-60
2023/12/07 05:07:07;;;;;;;219.95;50.00;;;;;;;-1.62;100.00;160153.28;5053694;28;20532;-60
2023/12/07 05:09:32;;;;;;;148.77;45.10;;;;;;;-1.56;100.00;160168.03;5051838;28;20103;-60
2023/12/07 05:11:58;;;;;;;106.70;41.67;;;;;;;-1.72;100.00;160127.88;5053219;28;20030;-59
2023/12/07 05:14:23;;;;;;;100.57;37.22;;;;;;;-1.60;100.00;160159.97;5053619;28;20033;-58
2023/12/07 05:16:52;;;;;;;109.72;40.40;;;;;;;-1.58;100.00;160162.66;5072968;28;20042;-59
2023/12/07 05:19:18;;;;;;;;;;;;;;;-1.56;100.00;160169.34;5071859;28;20117;-59
2023/12/07 05:21:44;;;;;;;119.07;41.60;;;;;;;-1.57;100.00;160166.72;5059028;28;20020;-58
2023/12/07 05:24:09;;;;;;;108.80;38.15;;;;;;;-1.54;100.00;160173.41;5051809;28;20021;-58
2023/12/07 05:26:35;;;;;;;96.10;40.03;;;;;;;-1.53;100.00;160176.09;5053061;28;20066;-59
2023/12/07 05:29:00;;;;;;;125.75;42.88;;;;;;;-1.53;100.00;160176.09;5064045;28;20035;-58
2023/12/07 05:31:26;;;;;;;127.35;43.80;;;;;;;-1.49;100.00;160186.78;5064131;28;20032;-60
2023/12/07 05:33:52;;;;;;;165.50;44.33;;;;;;;-1.49;100.00;160186.78;5052657;28;20025;-56
2023/12/07 05:36:17;;;;;;;192.15;47.08;;;;;;;-1.45;100.00;160198.81;5051290;28;20056;-56
2023/12/07 05:38:43;;;;;;;208.98;54.60;;;;;;;-1.42;100.00;160205.50;5052803;28;20570;-56
2023/12/07 05:41:09;;;;;;;180.80;49.60;;;;;;;-1.40;100.00;160209.50;5051251;28;20052;-56
2023/12/07 05:43:34;;;;;;;203.18;57.10;;;;;;;-1.43;100.00;160202.81;5059367;28;20054;-56
2023/12/07 05:46:00;;;;;;;262.20;60.17;;;;;;;-1.34;100.00;160226.94;5071464;28;20044;-56
2023/12/07 05:48:25;;;;;;;155.07;48.08;;;;;;;-1.31;100.00;160235.00;5071974;28;20082;-57
2023/12/07 05:50:51;;;;;;;142.25;46.45;;;;;;;-1.29;100.00;160240.31;5058198;28;20045;-56
2023/12/07 05:53:16;;;;;;;167.20;51.42;;;;;;;-1.31;100.00;160235.00;5064877;28;20025;-56
2023/12/07 05:55:42;;;;;;;174.30;54.63;;;;;;;-1.33;100.00;160229.63;5069339;28;20041;-56
2023/12/07 05:58:07;;;;;;;152.55;48.53;;;;;;;-1.38;100.00;160216.25;5072148;28;20471;-56
2023/12/07 06:00:32;;;;;;;95.72;44.20;;;;;;;-1.35;100.00;160224.25;5070957;28;20157;-56
2023/12/07 06:02:58;;;;;;;171.52;51.88;;;;;;;-1.34;100.00;160226.94;5072964;28;20012;-56
2023/12/07 06:05:23;;;;;;;189.80;54.55;;;;;;;-1.36;100.00;160221.56;5070389;28;20059;-56
2023/12/07 06:07:48;;;;;;;212.65;53.75;;;;;;;-1.34;100.00;160225.63;5052123;28;20032;-56
2023/12/07 06:10:14;;;;;;;151.38;47.97;;;;;;;-1.36;100.00;160221.56;5050211;28;20048;-56
2023/12/07 06:12:39;;;;;;;160.45;51.08;;;;;;;-1.37;100.00;160218.88;5051515;28;20396;-56
2023/12/07 06:15:06;;;;;;;189.43;53.20;;;;;;;-1.40;100.00;160210.88;5051008;28;20496;-56
2023/12/07 06:17:33;;;;;;;198.68;51.70;;;;;;;-1.33;100.00;160229.63;5047448;28;20033;-56
2023/12/07 06:19:59;;;;;;;114.50;46.45;;;;;;;-1.38;100.00;160216.25;5050647;28;20518;-56
2023/12/07 06:22:24;;;;;;;167.05;52.35;;;;;;;-1.40;100.00;160209.50;5051448;28;20025;-56
2023/12/07 06:24:50;;;;;;;156.48;50.78;;;;;;;-1.37;100.00;160218.88;5050337;28;20495;-56
2023/12/07 06:27:15;;;;;;;141.68;49.13;;;;;;;-1.41;100.00;160208.19;5051652;28;20021;-56
2023/12/07 06:29:40;;;;;;;126.63;49.97;;;;;;;-1.42;100.00;160205.50;5050144;28;20118;-56
2023/12/07 06:32:06;;;;;;;161.80;50.20;;;;;;;-1.40;100.00;160210.88;5051583;28;20546;-56
2023/12/07 06:34:31;;;;;;;117.97;48.55;;;;;;;-1.34;100.00;160226.94;5049260;28;20051;-56
2023/12/07 06:36:57;;;;;;;105.07;50.60;;;;;;;-1.33;100.00;160228.25;5050947;28;20037;-56
2023/12/07 06:39:22;;;;;;;86.60;49.30;;;;;;;-1.30;100.00;160237.63;5048860;28;20037;-56
2023/12/07 06:41:47;;;;;;;127.45;50.97;;;;;;;-1.25;100.00;160249.69;5051841;28;20020;-56
2023/12/07 06:44:13;;;;;;;104.90;48.55;;;;;;;-1.20;100.00;160261.75;5047884;28;20028;-56
2023/12/07 06:46:39;;;;;;;91.07;48.90;;;;;;;-1.19;100.00;160264.41;5051319;28;20025;-56
2023/12/07 06:49:04;;;;;;;87.82;49.10;;;;;;;-1.17;100.00;160271.09;5050128;28;20033;-56
2023/12/07 06:51:30;;;;;;;106.43;48.88;;;;;;;-1.15;100.00;160275.09;5051481;28;20044;-56
2023/12/07 06:53:55;;;;;;;97.65;48.55;;;;;;;-1.10;100.00;160287.16;5051843;28;20052;-56
2023/12/07 06:56:20;;;;;;;89.63;49.58;;;;;;;-1.12;100.00;160284.47;5049407;28;20451;-56
2023/12/07 06:58:46;;;;;;;103.10;55.17;;;;;;;-1.08;100.00;160293.84;5051447;28;20029;-56
2023/12/07 07:01:12;;;;;;;98.50;50.33;;;;;;;-1.08;100.00;160292.53;5048238;28;20048;-57
2023/12/07 07:03:38;;;;;;;116.88;54.78;;;;;;;-1.13;100.00;160281.84;5050740;28;20094;-56
2023/12/07 07:06:03;;;;;;;128.13;53.45;;;;;;;-1.03;100.00;160307.28;5049613;28;20068;-56
2023/12/07 07:08:29;;;;;;;110.45;51.03;;;;;;;-0.98;100.00;160320.66;5049352;28;20025;-57
2023/12/07 07:10:55;;;;;;;139.88;56.65;;;;;;;-0.92;100.00;160335.41;5049472;28;20051;-57
2023/12/07 07:13:20;;;;;;;127.07;53.20;;;;;;;-0.91;100.00;160336.72;5050936;28;20102;-56
2023/12/07 07:15:47;;;;;;;130.65;55.17;;;;;;;-0.87;100.00;160347.47;5049804;28;20037;-56
2023/12/07 07:18:13;;;;;;;128.50;53.80;;;;;;;-0.88;100.00;160344.78;5049898;28;20093;-56
2023/12/07 07:20:38;;;;;;;143.90;56.25;;;;;;;-0.82;100.00;160362.16;5049588;28;20652;-57
2023/12/07 07:23:04;;;;;;;146.20;56.40;;;;;;;-0.76;100.00;160376.91;5051080;28;20025;-57
2023/12/07 07:25:29;;;;;;;143.32;58.45;;;;;;;-0.77;100.00;160372.88;5048851;28;20056;-56
2023/12/07 07:27:55;;;;;;;194.23;60.60;;;;;;;-0.73;100.00;160384.94;5051317;28;20025;-57
2023/12/07 07:30:21;;;;;;;193.90;57.83;;;;;;;-0.69;100.00;160395.66;5049432;28;20040;-57
2023/12/07 07:32:46;;;;;;;234.77;68.05;;;;;;;-0.66;100.00;160403.69;5050389;28;20029;-57
2023/12/07 07:35:12;;;;;;;220.82;65.60;;;;;;;-0.60;100.00;160418.44;5049280;28;20187;-57
2023/12/07 07:37:41;;;;;;;262.45;69.43;;;;;;;-0.57;100.00;160425.13;5050605;28;20502;-57
2023/12/07 07:40:08;;;;;;;204.43;66.90;;;;;;;-0.55;100.00;160431.81;5049268;28;20404;-57
2023/12/07 07:42:33;;;;;;;253.35;69.50;;;;;;;-0.46;100.00;160453.25;5050437;28;20478;-56
2023/12/07 07:44:59;;;;;;;302.83;75.22;;;;;;;-0.48;100.00;160449.22;5049554;28;20049;-57
2023/12/07 07:47:24;;;;;;;305.75;71.63;;;;;;;-0.42;100.00;160463.97;5050111;28;20021;-57
2023/12/07 07:49:49;;;;;;;248.85;64.68;;;;;;;-0.43;100.00;160462.66;5049155;28;20037;-57
2023/12/07 07:52:15;;;;;;;325.75;82.50;;;;;;;-0.43;100.00;160462.66;5050287;28;20036;-57
2023/12/07 07:54:40;;;;;;;332.70;75.70;;;;;;;-0.31;100.00;160493.47;5048447;28;20435;-56
2023/12/07 07:57:05;;;;;;;455.52;86.00;;;;;;;-0.30;100.00;160496.16;5049055;28;20029;-57
2023/12/07 07:59:31;;;;;;;369.67;79.18;;;;;;;-0.27;100.00;160502.84;5047208;28;20040;-57
2023/12/07 08:01:57;;;;;;;401.75;84.95;;;;;;;-0.24;100.00;160510.84;5048411;28;20711;-57
2023/12/07 08:04:22;;;;;;;502.17;87.43;;;;;;;-0.23;100.00;160513.53;5047207;28;20037;-57
2023/12/07 08:06:48;;;;;;;381.83;85.13;;;;;;;-0.20;100.00;160521.59;5048803;28;20025;-57
2023/12/07 08:09:14;;;;;;;444.38;89.53;;;;;;;-0.17;100.00;160529.59;5046962;28;20021;-57
2023/12/07 08:11:39;;;;;;;338.10;74.60;;;;;;;-0.18;100.00;160528.28;5049168;28;20029;-57
2023/12/07 08:14:05;;;;;;;477.70;88.78;;;;;;;-0.12;100.00;160543.03;5049254;28;20033;-57
2023/12/07 08:16:30;;;;;;;450.00;86.07;;;;;;;-0.08;100.00;160552.41;5049882;28;20126;-56
2023/12/07 08:18:55;;;;;;;438.55;85.53;;;;;;;-0.08;100.00;160553.75;5050423;28;20021;-56
2023/12/07 08:21:21;;;;;;;430.42;84.65;;;;;;;-0.07;100.00;160556.44;5048784;28;20037;-56
2023/12/07 08:23:47;;;;;;;449.63;84.68;;;;;;;-0.06;100.00;160559.13;5050179;28;20025;-56
2023/12/07 08:26:14;;;;;;;508.27;91.50;;;;;;;-0.02;100.00;160569.81;5048424;28;20045;-56
2023/12/07 08:28:40;;;;;;;506.65;91.32;;;;;;;0.03;100.00;160580.56;5050366;28;20547;-57
2023/12/07 08:31:06;;;;;;;450.80;91.88;;;;;;;0.08;100.00;160593.94;5051652;28;20124;-57
2023/12/07 08:33:34;;;;;;;453.63;87.80;;;;;;;0.10;100.00;160599.31;5054036;28;20068;-57
2023/12/07 08:35:59;;;;;;;410.88;79.70;;;;;;;0.18;100.00;160619.41;5052521;28;20047;-56
2023/12/07 08:38:25;;;;;;;415.15;80.63;;;;;;;0.17;100.00;160616.72;5053927;28;20025;-57
2023/12/07 08:40:50;;;;;;;401.63;82.15;;;;;;;0.25;100.00;160638.16;5052467;28;20052;-57
2023/12/07 08:43:15;;;;;;;415.50;79.88;;;;;;;0.23;100.00;160634.16;5053915;28;20070;-56
2023/12/07 08:45:41;;;;;;;418.85;81.28;;;;;;;0.35;100.00;160663.63;5052412;28;20400;-56
2023/12/07 08:48:06;;;;;;;433.20;80.43;;;;;;;0.40;100.00;160677.06;5053858;28;20119;-56
2023/12/07 08:50:32;;;;;;;433.48;85.07;;;;;;;0.41;100.00;160681.06;5052287;28;20041;-56
2023/12/07 08:52:57;;;;;;;464.65;87.35;;;;;;;0.41;100.00;160679.75;5053850;28;20067;-56
2023/12/07 08:55:22;;;;;;;501.50;89.20;;;;;;;0.41;100.00;160679.75;5051961;28;20041;-56
2023/12/07 08:57:48;;;;;;;489.35;97.68;;;;;;;0.46;100.00;160693.13;5053618;28;20464;-57
2023/12/07 09:00:14;;;;;;;496.42;87.82;;;;;;;0.53;100.00;160711.91;5052131;28;20048;-56
2023/12/07 09:02:39;;;;;;;406.10;76.35;;;;;;;0.63;100.00;160737.38;5053613;28;20030;-57
2023/12/07 09:05:05;;;;;;;420.33;80.60;;;;;;;0.62;100.00;160736.06;5052276;28;20508;-57
2023/12/07 09:07:30;;;;;;;354.02;74.93;;;;;;;0.72;100.00;160761.50;5053519;28;20032;-57
2023/12/07 09:09:56;;;;;;;376.48;81.80;;;;;;;0.76;100.00;160772.22;5051179;28;20404;-56
2023/12/07 09:12:21;;;;;;;305.00;70.90;;;;;;;0.78;100.00;160776.28;5052889;28;20472;-57
2023/12/07 09:14:46;;;;;;;370.25;74.93;;;;;;;0.85;100.00;160795.03;5044037;28;20049;-57
2023/12/07 09:17:12;;;;;;;295.45;65.88;;;;;;;0.88;100.00;160803.06;5032204;28;20103;-56
2023/12/07 09:19:37;;;;;;;255.82;66.93;;;;;;;0.84;100.00;160790.97;5037774;28;20049;-57
2023/12/07 09:22:03;;;;;;;309.70;66.40;;;;;;;0.82;100.00;160786.97;5053746;28;20017;-57
2023/12/07 09:24:28;;;;;;;252.38;65.57;;;;;;;0.76;100.00;160772.22;5049168;28;20622;-56
2023/12/07 09:26:53;;;;;;;250.52;62.97;;;;;;;0.82;100.00;160785.66;5053109;28;20067;-56
2023/12/07 09:29:19;;;;;;;211.05;58.53;;;;;;;0.79;100.00;160780.28;5051409;28;20040;-56
2023/12/07 09:31:44;;;;;;;259.23;59.85;;;;;;;0.77;100.00;160773.59;5052729;28;20079;-57
2023/12/07 09:34:09;;;;;;;165.60;53.35;;;;;;;0.66;100.00;160744.06;5051636;28;20476;-56
2023/12/07 09:36:35;;;;;;;153.05;54.22;;;;;;;0.72;100.00;160760.13;5052737;28;20063;-56
2023/12/07 09:39:00;;;;;;;159.57;52.45;;;;;;;0.80;100.00;160781.59;5051044;28;20033;-56
2023/12/07 09:41:28;;;;;;;222.57;59.67;;;;;;;0.84;100.00;160792.34;5051951;28;20585;-57
2023/12/07 09:43:55;;;;;;;276.55;62.20;;;;;;;0.84;100.00;160790.97;5053008;28;20049;-57
2023/12/07 09:46:20;;;;;;;204.15;57.65;;;;;;;0.93;100.00;160816.47;5050911;28;20056;-56
2023/12/07 09:48:49;;;;;;;144.55;50.88;;;;;;;0.93;100.00;160816.47;5041808;28;20035;-57
2023/12/07 09:51:15;;;;;;;170.68;56.08;;;;;;;1.00;100.00;160833.91;5031178;28;20413;-57
2023/12/07 09:53:43;;;;;;;202.18;59.88;;;;;;;0.97;100.00;160824.53;5032762;28;20095;-57
2023/12/07 09:56:09;;;;;;;181.77;56.17;;;;;;;0.99;100.00;160829.91;5031254;28;20493;-57
2023/12/07 09:58:34;;;;;;;219.52;62.45;;;;;;;1.02;100.00;160837.91;5032510;28;20029;-56
2023/12/07 10:00:59;;;;;;;206.27;60.58;;;;;;;1.02;100.00;160837.91;5030873;28;20614;-57
2023/12/07 10:03:25;;;;;;;209.68;65.18;;;;;;;1.10;100.00;160859.38;5031570;28;20020;-57
2023/12/07 10:05:56;;;;;;;258.67;67.38;;;;;;;1.24;100.00;160896.94;5031462;28;20037;-56
2023/12/07 10:08:31;;;;;;;267.58;67.15;;;;;;;1.25;100.00;160898.31;5032114;28;20033;-56
2023/12/07 10:11:08;;;;;;;193.93;64.05;;;;;;;1.33;100.00;160919.78;5031193;28;20074;-56
2023/12/07 10:13:35;;;;;;;225.93;64.68;;;;;;;1.36;100.00;160926.47;5032538;28;20032;-56
2023/12/07 10:16:14;;;;;;;231.20;66.43;;;;;;;1.36;100.00;160926.47;5030626;28;20474;-57
2023/12/07 10:18:40;;;;;;;224.88;67.85;;;;;;;1.45;100.00;160949.25;5032801;28;20037;-57
2023/12/07 10:21:09;;;;;;;193.68;64.15;;;;;;;1.50;100.00;160964.03;5031176;28;20664;-56
2023/12/07 10:23:38;;;;;;;208.55;66.28;;;;;;;1.57;100.00;160982.81;5031789;28;20029;-57
2023/12/07 10:26:07;;;;;;;164.57;64.95;;;;;;;1.50;100.00;160964.03;5030854;28;20085;-56
2023/12/07 10:28:35;;;;;;;163.15;65.40;;;;;;;1.53;100.00;160972.03;5032125;28;20029;-57
2023/12/07 10:31:01;;;;;;;;;;;;;;;1.61;100.00;160990.81;5030909;28;20065;-57
2023/12/07 10:33:26;;;;;;;153.27;62.20;;;;;;;1.70;100.00;161015.00;5032097;28;20007;-57
2023/12/07 10:35:51;;;;;;;145.23;61.17;;;;;;;1.69;100.00;161013.66;5030580;28;20041;-57
2023/12/07 10:38:18;;;;;;;146.32;62.92;;;;;;;1.76;100.00;161029.75;5031323;28;20036;-56
2023/12/07 10:40:46;;;;;;;170.23;62.95;;;;;;;1.77;100.00;161033.78;5030721;28;20041;-57
2023/12/07 10:43:12;;;;;;;169.95;62.88;;;;;;;1.85;100.00;161053.94;5031847;28;20489;-57
2023/12/07 10:45:41;;;;;;;164.40;62.90;;;;;;;1.89;100.00;161066.00;5030239;28;20045;-57
2023/12/07 10:48:10;;;;;;;160.93;62.97;;;;;;;1.99;100.00;161091.50;5032106;28;20021;-62
2023/12/07 10:50:45;;;;;;;147.48;58.22;;;;;;;1.99;100.00;161090.13;5030227;28;20520;-57
2023/12/07 10:53:19;;;;;;;155.55;59.13;;;;;;;2.00;100.00;161092.81;5031134;28;20064;-57